Time;durP1;ratioP1;P1;durP2;ratioP2;P2;SDS_P1;SDS_P2;PMS_P1;PMS_P2;Temp;Humidity;BMP_temperature;BMP_pressure;BME280_temperature;BME280_humidity;BME280_pressure;Samples;Min_cycle;Max_cycle;Signal;HPM_P1;HPM_P2
2024/01/27 00:00:20;;;;;;;15.00;5.65;;;;;;;0.11;100.00;100599.47;5025600;28;20044;-77
2024/01/27 00:02:46;;;;;;;12.18;5.38;;;;;;;0.12;100.00;100603.84;5047200;28;20032;-77
2024/01/27 00:05:11;;;;;;;14.13;5.10;;;;;;;0.10;100.00;100615.53;5026827;28;20101;-77
2024/01/27 00:07:36;;;;;;;15.30;5.50;;;;;;;-0.02;100.00;100609.13;5026977;28;20059;-77
2024/01/27 00:10:02;;;;;;;9.63;4.78;;;;;;;-0.28;100.00;100563.66;5043161;28;20205;-77
2024/01/27 00:12:28;;;;;;;10.35;4.65;;;;;;;-0.07;100.00;100600.56;5026765;28;20092;-77
2024/01/27 00:14:53;;;;;;;11.85;4.95;;;;;;;0.01;100.00;100608.94;5032867;28;20347;-77
2024/01/27 00:17:24;;;;;;;14.55;5.25;;;;;;;0.06;100.00;100616.66;5046779;28;20093;-78
2024/01/27 00:19:50;;;;;;;17.20;6.45;;;;;;;-0.08;100.00;100599.72;5043028;28;20021;-78
2024/01/27 00:22:16;;;;;;;16.77;5.95;;;;;;;-0.07;100.00;100613.88;5039116;28;20018;-78
2024/01/27 00:24:47;;;;;;;13.45;5.63;;;;;;;-0.26;100.00;100614.97;5030806;28;20040;-78
2024/01/27 00:27:12;;;;;;;10.40;4.82;;;;;;;-0.32;100.00;100617.97;5023679;28;20201;-79
2024/01/27 00:29:38;;;;;;;13.10;4.50;;;;;;;-0.60;100.00;100569.97;5026640;28;20028;-78
2024/01/27 00:32:04;;;;;;;10.20;4.80;;;;;;;-0.30;100.00;100640.00;5047025;28;20049;-77
2024/01/27 00:34:29;;;;;;;16.45;4.95;;;;;;;-0.41;100.00;100607.88;5046657;28;20056;-77
2024/01/27 00:37:00;;;;;;;11.07;4.30;;;;;;;-0.28;100.00;100634.63;5032169;28;20047;-77
2024/01/27 00:39:25;;;;;;;9.10;3.58;;;;;;;-0.28;100.00;100640.78;5024400;28;20037;-78
2024/01/27 00:41:52;;;;;;;12.57;3.58;;;;;;;-0.36;100.00;100627.06;5118650;22;20402;-61
2024/01/27 00:44:18;;;;;;;6.55;3.28;;;;;;;-0.24;100.00;100638.78;5026052;28;20037;-63
2024/01/27 00:46:44;;;;;;;9.50;3.25;;;;;;;-0.28;100.00;100638.13;5029401;28;20029;-63
2024/01/27 00:49:09;;;;;;;7.50;3.20;;;;;;;-0.33;100.00;100640.19;5031429;28;20036;-64
2024/01/27 00:51:34;;;;;;;11.50;3.85;;;;;;;-0.41;100.00;100645.09;5033519;28;20021;-64
2024/01/27 00:54:00;;;;;;;7.60;3.35;;;;;;;-0.41;100.00;100645.09;5027155;28;20473;-63
2024/01/27 00:56:25;;;;;;;11.32;3.88;;;;;;;-0.46;100.00;100633.88;5030804;28;20544;-63
2024/01/27 00:58:51;;;;;;;14.18;4.43;;;;;;;-0.40;100.00;100638.81;5030493;28;20030;-62
2024/01/27 01:01:16;;;;;;;20.02;5.47;;;;;;;-0.51;100.00;100644.75;5028257;28;20053;-62
2024/01/27 01:03:42;;;;;;;12.07;4.32;;;;;;;-0.49;100.00;100632.25;5022193;28;20040;-62
2024/01/27 01:06:07;;;;;;;12.70;5.00;;;;;;;-0.49;100.00;100636.72;5025023;28;20064;-62
2024/01/27 01:08:32;;;;;;;10.90;4.55;;;;;;;-0.45;100.00;100638.22;5016422;28;20448;-63
2024/01/27 01:10:58;;;;;;;9.90;4.25;;;;;;;-0.53;100.00;100640.47;5027673;28;20108;-62
2024/01/27 01:13:23;;;;;;;9.60;3.97;;;;;;;-0.59;100.00;100641.69;5025581;28;20033;-62
2024/01/27 01:15:49;;;;;;;12.85;5.03;;;;;;;-0.71;100.00;100645.91;5029233;28;20025;-62
2024/01/27 01:18:14;;;;;;;16.92;4.75;;;;;;;-0.64;100.00;100648.22;5027843;28;20029;-62
2024/01/27 01:20:40;;;;;;;10.35;4.05;;;;;;;-0.56;100.00;100653.94;5027219;28;20022;-63
2024/01/27 01:23:05;;;;;;;17.52;5.38;;;;;;;-0.79;100.00;100653.41;5021955;28;20113;-62
2024/01/27 01:25:44;;;;;;;17.55;5.00;;;;;;;-0.79;100.00;100661.41;5031171;28;20030;-62
2024/01/27 01:28:09;;;;;;;17.85;4.90;;;;;;;-0.83;100.00;100665.19;5027716;28;20038;-62
2024/01/27 01:30:35;;;;;;;9.57;4.97;;;;;;;-0.85;100.00;100667.06;5017981;28;20436;-62
2024/01/27 01:33:01;;;;;;;15.80;6.10;;;;;;;-0.88;100.00;100667.22;5024321;28;20473;-62
2024/01/27 01:35:26;;;;;;;12.18;5.03;;;;;;;-0.88;100.00;100673.41;5030750;28;20030;-62
2024/01/27 01:37:52;;;;;;;12.35;5.45;;;;;;;-0.91;100.00;100675.38;5030301;28;20044;-63
2024/01/27 01:40:17;;;;;;;20.60;6.47;;;;;;;-0.92;100.00;100666.56;5034672;28;20029;-62
2024/01/27 01:42:43;;;;;;;18.05;5.43;;;;;;;-0.93;100.00;100663.97;5024858;28;20084;-62
2024/01/27 01:45:12;;;;;;;16.55;4.68;;;;;;;-0.98;100.00;100660.72;5026542;28;20468;-62
2024/01/27 01:47:37;;;;;;;7.40;3.63;;;;;;;-0.95;100.00;100665.84;5027694;28;20421;-62
2024/01/27 01:50:04;;;;;;;12.40;4.28;;;;;;;-1.03;100.00;100660.94;5023897;28;20022;-62
2024/01/27 01:52:31;;;;;;;11.90;4.55;;;;;;;-0.96;100.00;100664.16;5030474;28;20071;-62
2024/01/27 01:54:56;;;;;;;17.75;4.50;;;;;;;-1.06;100.00;100669.09;5027604;28;20117;-62
2024/01/27 01:57:21;;;;;;;13.55;4.10;;;;;;;-0.97;100.00;100673.91;5025296;28;20022;-62
2024/01/27 01:59:47;;;;;;;11.98;3.85;;;;;;;-0.93;100.00;100674.59;5025006;28;20401;-62
2024/01/27 02:02:12;;;;;;;8.18;3.80;;;;;;;-1.05;100.00;100675.25;5023678;28;20026;-62
2024/01/27 02:04:42;;;;;;;7.93;3.58;;;;;;;-1.13;100.00;100673.91;5017699;28;20026;-62
2024/01/27 02:07:09;;;;;;;;;;;;;;;-1.21;100.00;100686.69;5026739;28;20436;-62
2024/01/27 02:09:34;;;;;;;8.00;3.40;;;;;;;-1.24;100.00;100686.88;5022400;28;19913;-62
2024/01/27 02:12:00;;;;;;;9.35;4.00;;;;;;;-1.22;100.00;100698.28;5028024;28;20025;-62
2024/01/27 02:14:27;;;;;;;10.23;4.22;;;;;;;-1.34;100.00;100701.56;5029717;28;20072;-62
2024/01/27 02:16:53;;;;;;;12.82;4.03;;;;;;;-1.34;100.00;100704.22;5032147;28;20052;-62
2024/01/27 02:19:18;;;;;;;10.85;4.18;;;;;;;-1.25;100.00;100711.72;5027346;28;20034;-62
2024/01/27 02:21:44;;;;;;;8.93;4.80;;;;;;;-1.24;100.00;100713.44;5026248;28;20014;-62
2024/01/27 02:24:10;;;;;;;10.25;5.40;;;;;;;-1.24;100.00;100708.13;5026079;28;20101;-62
2024/01/27 02:26:35;;;;;;;15.35;5.55;;;;;;;-1.24;100.00;100710.78;5032591;28;20496;-62
2024/01/27 02:29:02;;;;;;;14.50;5.10;;;;;;;-1.21;100.00;100707.09;5028681;28;20026;-62
2024/01/27 02:31:28;;;;;;;11.15;4.97;;;;;;;-1.16;100.00;100711.22;5027065;28;20018;-62
2024/01/27 02:33:54;;;;;;;10.05;4.30;;;;;;;-1.23;100.00;100703.66;5029149;28;20037;-62
2024/01/27 02:36:19;;;;;;;13.10;4.82;;;;;;;-1.16;100.00;100719.19;5026413;28;20033;-62
2024/01/27 02:38:45;;;;;;;16.38;6.03;;;;;;;-1.32;100.00;100723.59;5024602;28;20029;-62
2024/01/27 02:41:11;;;;;;;8.80;4.78;;;;;;;-1.35;100.00;100727.28;5028316;28;20028;-62
2024/01/27 02:43:37;;;;;;;15.85;5.78;;;;;;;-1.35;100.00;100729.06;5027000;28;20026;-62
2024/01/27 02:46:08;;;;;;;11.38;5.18;;;;;;;-1.28;100.00;100732.25;5029229;28;20029;-62
2024/01/27 02:48:33;;;;;;;11.48;5.10;;;;;;;-1.29;100.00;100735.84;5031937;28;20061;-62
2024/01/27 02:51:02;;;;;;;14.00;5.30;;;;;;;-1.32;100.00;100736.88;5030127;28;20078;-61
2024/01/27 02:53:27;;;;;;;;;;;;;;;-1.24;100.00;100744.44;5033766;28;20099;-61
2024/01/27 02:55:53;;;;;;;15.73;4.05;;;;;;;-1.28;100.00;100735.78;5012238;28;19917;-62
2024/01/27 02:58:18;;;;;;;12.80;4.57;;;;;;;-1.22;100.00;100740.75;5030941;28;20105;-62
2024/01/27 03:00:43;;;;;;;15.38;4.53;;;;;;;-1.22;100.00;100743.41;5026696;28;20205;-62
2024/01/27 03:03:09;;;;;;;8.77;4.10;;;;;;;-1.26;100.00;100736.53;5026892;28;20025;-62
2024/01/27 03:05:35;;;;;;;16.30;4.28;;;;;;;-1.16;100.00;100732.47;5035020;28;20025;-62
2024/01/27 03:08:00;;;;;;;12.65;4.57;;;;;;;-1.31;100.00;100730.66;5031343;28;20030;-62
2024/01/27 03:10:26;;;;;;;8.57;3.60;;;;;;;-1.26;100.00;100741.84;5032587;28;20496;-62
2024/01/27 03:12:52;;;;;;;9.35;3.72;;;;;;;-1.25;100.00;100734.78;5027984;28;20030;-62
2024/01/27 03:15:17;;;;;;;7.88;3.92;;;;;;;-1.27;100.00;100739.28;5034686;28;20029;-61
2024/01/27 03:17:43;;;;;;;13.18;3.95;;;;;;;-1.35;100.00;100737.88;5025119;28;20488;-62
2024/01/27 03:20:09;;;;;;;10.00;3.80;;;;;;;-1.34;100.00;100741.41;5033054;28;20072;-62
2024/01/27 03:22:34;;;;;;;16.48;4.18;;;;;;;-1.28;100.00;100742.88;5029902;28;20049;-62
2024/01/27 03:25:00;;;;;;;17.77;3.97;;;;;;;-1.34;100.00;100744.94;5031983;28;20037;-64
2024/01/27 03:27:25;;;;;;;22.77;3.97;;;;;;;-1.27;100.00;100734.84;5027349;28;20029;-62
2024/01/27 03:29:51;;;;;;;11.90;4.18;;;;;;;-1.40;100.00;100741.72;5030712;28;20021;-62
2024/01/27 03:32:16;;;;;;;6.70;3.80;;;;;;;-1.31;100.00;100741.25;5022013;28;20600;-62
2024/01/27 03:34:45;;;;;;;8.85;3.83;;;;;;;-1.21;100.00;100745.13;5031762;28;20254;-62
2024/01/27 03:37:11;;;;;;;10.73;3.70;;;;;;;-1.31;100.00;100743.91;5025981;28;20049;-62
2024/01/27 03:39:37;;;;;;;9.90;3.97;;;;;;;-1.32;100.00;100743.03;5028612;28;20083;-62
2024/01/27 03:42:03;;;;;;;8.18;3.70;;;;;;;-1.39;100.00;100754.06;5024714;28;20480;-62
2024/01/27 03:44:28;;;;;;;11.25;4.40;;;;;;;-1.36;100.00;100751.25;5027255;28;20333;-62
2024/01/27 03:46:54;;;;;;;7.85;4.10;;;;;;;-1.42;100.00;100760.38;5027225;28;20040;-62
2024/01/27 03:49:19;;;;;;;6.18;3.63;;;;;;;-1.59;100.00;100760.41;5032489;28;20029;-62
2024/01/27 03:51:44;;;;;;;13.20;4.40;;;;;;;-1.56;100.00;100763.75;5028704;28;20076;-62
2024/01/27 03:54:10;;;;;;;12.50;4.30;;;;;;;-1.62;100.00;100772.03;5031240;28;20406;-61
2024/01/27 03:56:36;;;;;;;12.60;4.65;;;;;;;-1.67;100.00;100774.06;5032415;28;20052;-61
2024/01/27 03:59:03;;;;;;;12.00;3.72;;;;;;;-1.72;100.00;100770.78;5031125;28;20134;-62
2024/01/27 04:01:47;;;;;;;10.93;4.65;;;;;;;-1.78;100.00;100773.75;5031220;28;20022;-62
2024/01/27 04:04:13;;;;;;;9.07;4.35;;;;;;;-1.85;100.00;100759.91;5029268;28;20037;-62
2024/01/27 04:06:40;;;;;;;12.75;3.95;;;;;;;-1.74;100.00;100780.59;5024897;28;20040;-61
2024/01/27 04:09:09;;;;;;;11.25;4.32;;;;;;;-1.81;100.00;100771.22;5030496;28;20033;-62
2024/01/27 04:11:36;;;;;;;14.00;4.72;;;;;;;-1.62;100.00;100780.00;5029819;28;20021;-62
2024/01/27 04:14:03;;;;;;;14.05;5.10;;;;;;;-1.58;100.00;100775.38;5032106;28;20037;-62
2024/01/27 04:16:29;;;;;;;10.00;4.30;;;;;;;-1.64;100.00;100795.13;5027925;28;20452;-62
2024/01/27 04:18:54;;;;;;;16.10;4.95;;;;;;;-1.69;100.00;100793.63;5035920;28;20056;-62
2024/01/27 04:21:20;;;;;;;9.25;4.18;;;;;;;-1.83;100.00;100775.75;5029804;28;20021;-62
2024/01/27 04:23:45;;;;;;;8.02;4.15;;;;;;;-1.76;100.00;100785.09;5027771;28;20025;-62
2024/01/27 04:26:11;;;;;;;14.50;3.97;;;;;;;-1.86;100.00;100792.69;5012409;28;20033;-61
2024/01/27 04:28:37;;;;;;;12.23;4.07;;;;;;;-2.00;100.00;100790.69;5029341;28;20676;-61
2024/01/27 04:31:03;;;;;;;10.52;4.28;;;;;;;-2.03;100.00;100790.84;5031861;28;20029;-61
2024/01/27 04:33:28;;;;;;;9.48;4.45;;;;;;;-2.06;100.00;100782.19;5028533;28;20052;-61
2024/01/27 04:35:54;;;;;;;9.85;4.60;;;;;;;-2.02;100.00;100786.38;5007972;28;20109;-61
2024/01/27 04:38:19;;;;;;;18.15;4.45;;;;;;;-1.91;100.00;100796.47;5025608;28;20021;-61
2024/01/27 04:40:45;;;;;;;11.10;5.10;;;;;;;-1.92;100.00;100800.91;5033055;28;20033;-62
2024/01/27 04:43:16;;;;;;;8.98;4.65;;;;;;;-1.96;100.00;100801.16;5019809;28;20029;-61
2024/01/27 04:45:41;;;;;;;12.73;4.35;;;;;;;-2.01;100.00;100796.94;5026962;28;20022;-63
2024/01/27 04:48:07;;;;;;;10.02;4.57;;;;;;;-2.07;100.00;100802.53;5031576;28;20116;-62
2024/01/27 04:50:32;;;;;;;17.90;4.65;;;;;;;-2.14;100.00;100801.09;5032006;28;20037;-62
2024/01/27 04:52:58;;;;;;;13.38;4.97;;;;;;;-2.14;100.00;100813.50;5027537;28;20056;-62
2024/01/27 04:55:23;;;;;;;12.50;4.90;;;;;;;-2.11;100.00;100805.41;5027717;28;20447;-61
2024/01/27 04:57:49;;;;;;;11.20;5.53;;;;;;;-1.96;100.00;100809.13;5031123;28;20088;-61
2024/01/27 05:00:15;;;;;;;13.80;4.95;;;;;;;-2.11;100.00;100800.97;5027509;28;20474;-61
2024/01/27 05:02:41;;;;;;;13.65;5.05;;;;;;;-2.17;100.00;100801.25;5027848;28;20022;-61
2024/01/27 05:05:07;;;;;;;12.40;5.57;;;;;;;-2.08;100.00;100799.94;5025453;28;20029;-61
2024/01/27 05:07:33;;;;;;;15.52;5.22;;;;;;;-2.10;100.00;100796.50;5028006;28;20037;-61
2024/01/27 05:09:59;;;;;;;15.07;5.50;;;;;;;-2.12;100.00;100801.91;5029465;28;20040;-61
2024/01/27 05:12:24;;;;;;;10.55;5.75;;;;;;;-2.10;100.00;100807.97;5031644;28;20029;-58
2024/01/27 05:14:50;;;;;;;13.60;5.85;;;;;;;-2.17;100.00;100811.88;5028128;28;20116;-58
2024/01/27 05:17:22;;;;;;;14.45;5.15;;;;;;;-2.30;100.00;100805.44;5028443;28;20044;-58
2024/01/27 05:19:49;;;;;;;13.18;5.05;;;;;;;-2.39;100.00;100811.16;5031921;28;20476;-58
2024/01/27 05:22:15;;;;;;;9.60;5.00;;;;;;;-2.28;100.00;100803.53;5021430;28;20087;-58
2024/01/27 05:24:40;;;;;;;17.83;6.05;;;;;;;-2.30;100.00;100816.03;5029251;28;20065;-58
2024/01/27 05:27:06;;;;;;;12.40;5.72;;;;;;;-2.37;100.00;100811.94;5026745;28;20037;-58
2024/01/27 05:29:31;;;;;;;13.93;5.88;;;;;;;-2.24;100.00;100815.72;5025517;28;20052;-58
2024/01/27 05:31:57;;;;;;;9.65;5.70;;;;;;;-2.32;100.00;100812.59;5017172;28;20025;-58
2024/01/27 05:34:22;;;;;;;14.65;5.28;;;;;;;-2.23;100.00;100817.44;5029817;28;20033;-58
2024/01/27 05:36:48;;;;;;;10.57;4.72;;;;;;;-2.24;100.00;100816.59;5026133;28;20043;-58
2024/01/27 05:39:14;;;;;;;12.52;4.82;;;;;;;-2.30;100.00;100808.94;5012290;28;20021;-57
2024/01/27 05:41:39;;;;;;;11.20;4.43;;;;;;;-2.26;100.00;100820.25;5027810;28;20025;-57
2024/01/27 05:44:05;;;;;;;10.35;4.85;;;;;;;-2.27;100.00;100816.75;5023491;28;20477;-57
2024/01/27 05:46:30;;;;;;;16.10;4.60;;;;;;;-2.32;100.00;100812.59;5030976;28;20029;-57
2024/01/27 05:49:01;;;;;;;13.75;4.35;;;;;;;-2.29;100.00;100812.44;5024629;28;20546;-57
2024/01/27 05:51:26;;;;;;;11.88;4.75;;;;;;;-2.28;100.00;100808.84;5029969;28;20026;-60
2024/01/27 05:53:52;;;;;;;16.25;5.13;;;;;;;-2.28;100.00;100815.03;5032036;28;20366;-61
2024/01/27 05:56:20;;;;;;;9.52;4.30;;;;;;;-2.29;100.00;100809.78;5027228;28;20022;-61
2024/01/27 05:58:46;;;;;;;19.23;5.22;;;;;;;-2.31;100.00;100803.69;5028444;28;20477;-61
2024/01/27 06:01:12;;;;;;;10.75;4.10;;;;;;;-2.39;100.00;100816.44;5029083;28;20049;-61
2024/01/27 06:03:37;;;;;;;18.88;4.53;;;;;;;-2.39;100.00;100816.44;5024849;28;20037;-58
2024/01/27 06:06:03;;;;;;;11.32;4.35;;;;;;;-2.32;100.00;100829.34;5023272;28;20037;-57
2024/01/27 06:08:29;;;;;;;13.48;4.45;;;;;;;-2.38;100.00;100826.09;5025132;28;20033;-57
2024/01/27 06:10:54;;;;;;;14.23;5.53;;;;;;;-2.28;100.00;100832.69;5026495;28;20465;-58
2024/01/27 06:13:20;;;;;;;20.38;6.30;;;;;;;-2.26;100.00;100833.50;5025514;28;20084;-61
2024/01/27 06:15:45;;;;;;;15.35;5.18;;;;;;;-2.32;100.00;100833.78;5030739;28;20039;-57
2024/01/27 06:18:11;;;;;;;17.67;5.25;;;;;;;-2.35;100.00;100823.34;5009425;28;20034;-58
2024/01/27 06:20:36;;;;;;;15.77;5.90;;;;;;;-2.23;100.00;100828.03;5026430;28;20449;-57
2024/01/27 06:23:02;;;;;;;20.23;6.00;;;;;;;-2.27;100.00;100824.69;5030461;28;20457;-60
2024/01/27 06:25:27;;;;;;;17.25;5.85;;;;;;;-2.27;100.00;100831.78;5034152;28;20124;-57
2024/01/27 06:27:53;;;;;;;18.75;5.75;;;;;;;-2.25;100.00;100828.13;5031320;28;20450;-57
2024/01/27 06:30:19;;;;;;;13.48;4.57;;;;;;;-2.30;100.00;100830.13;5012566;28;20477;-57
2024/01/27 06:32:44;;;;;;;11.07;4.90;;;;;;;-2.40;100.00;100834.16;5031242;28;20037;-57
2024/01/27 06:35:09;;;;;;;12.90;5.10;;;;;;;-2.52;100.00;100827.59;5027787;28;20036;-57
2024/01/27 06:37:37;;;;;;;12.15;5.45;;;;;;;-2.46;100.00;100835.28;5035406;28;20044;-57
2024/01/27 06:42:32;;;;;;;11.23;4.60;;;;;;;-2.58;100.00;100842.94;5111447;22;20055;-80
2024/01/27 06:44:57;;;;;;;11.50;4.97;;;;;;;-2.41;100.00;100840.41;5057305;28;20100;-80
2024/01/27 06:47:22;;;;;;;15.35;5.45;;;;;;;-2.61;100.00;100795.38;5065879;28;20086;-78
2024/01/27 06:49:48;;;;;;;10.88;4.75;;;;;;;-2.28;100.00;100857.44;5058444;28;20029;-78
2024/01/27 06:52:13;;;;;;;15.45;5.28;;;;;;;-2.42;100.00;100852.75;5060826;28;20029;-77
2024/01/27 06:54:43;;;;;;;18.65;5.78;;;;;;;-2.51;100.00;100837.28;5061116;28;20036;-78
2024/01/27 06:57:18;;;;;;;19.13;5.57;;;;;;;-2.42;100.00;100831.56;5064350;28;20067;-77
2024/01/27 06:59:44;;;;;;;12.70;6.03;;;;;;;-2.43;100.00;100819.25;5058884;28;20017;-77
2024/01/27 07:02:13;;;;;;;13.90;5.22;;;;;;;-2.39;100.00;100827.91;5061569;28;20063;-76
2024/01/27 07:04:39;;;;;;;10.27;4.78;;;;;;;-2.50;100.00;100820.44;5083823;28;20021;-76
2024/01/27 07:07:04;;;;;;;11.80;5.22;;;;;;;-2.51;100.00;100824.03;5064607;28;20055;-76
2024/01/27 07:09:29;;;;;;;16.65;5.32;;;;;;;-2.39;100.00;100838.50;5061084;28;20347;-77
2024/01/27 07:11:55;;;;;;;10.85;4.93;;;;;;;-2.30;100.00;100848.69;5063429;28;20028;-77
2024/01/27 07:14:20;;;;;;;15.23;5.40;;;;;;;-2.25;100.00;100849.34;5053565;28;20028;-77
2024/01/27 07:16:45;;;;;;;10.52;4.70;;;;;;;-2.29;100.00;100852.22;5056404;28;20044;-77
2024/01/27 07:19:11;;;;;;;10.45;4.65;;;;;;;-2.33;100.00;100842.66;5066999;28;20020;-77
2024/01/27 07:21:36;;;;;;;14.02;5.47;;;;;;;-2.29;100.00;100846.91;5061013;28;20013;-78
2024/01/27 07:24:03;;;;;;;12.63;5.15;;;;;;;-2.27;100.00;100845.03;5064204;28;20024;-77
2024/01/27 07:26:28;;;;;;;17.10;6.07;;;;;;;-2.19;100.00;100844.69;5075247;28;20020;-75
2024/01/27 07:28:53;;;;;;;15.27;5.63;;;;;;;-2.05;100.00;100847.53;5060118;28;20204;-75
2024/01/27 07:31:19;;;;;;;15.27;7.13;;;;;;;-1.88;100.00;100846.75;5063414;28;20107;-74
2024/01/27 07:33:45;;;;;;;17.20;8.40;;;;;;;-1.86;100.00;100836.91;5061660;28;20248;-74
2024/01/27 07:36:11;;;;;;;22.75;9.60;;;;;;;-1.87;100.00;100808.66;5060422;28;20024;-74
2024/01/27 07:38:36;;;;;;;21.75;8.45;;;;;;;-1.38;100.00;100844.25;5059537;28;20016;-75
2024/01/27 07:41:02;;;;;;;25.42;9.30;;;;;;;-0.73;100.00;100840.94;5060613;28;20065;-75
2024/01/27 07:43:27;;;;;;;24.33;9.15;;;;;;;-0.03;100.00;100842.44;5058405;28;20024;-74
2024/01/27 07:45:53;;;;;;;15.32;7.30;;;;;;;0.62;100.00;100850.25;5060593;28;20021;-74
2024/01/27 07:48:18;;;;;;;16.15;6.35;;;;;;;1.43;100.00;100833.84;5062298;28;20025;-77
2024/01/27 07:50:48;;;;;;;14.20;5.05;;;;;;;2.24;100.00;100825.16;5052051;22;20128;-52
2024/01/27 07:53:14;;;;;;;6.90;3.72;;;;;;;3.57;100.00;100814.38;5006912;28;20053;-56
2024/01/27 07:55:39;;;;;;;10.10;3.53;;;;;;;4.29;100.00;100806.44;4999911;28;20457;-52
2024/01/27 07:58:23;;;;;;;;;;;;;;;;;;;;;
2024/01/27 08:00:53;;;;;;;8.73;3.83;;;;;;;5.29;100.00;100802.38;5004183;28;20034;-54
2024/01/27 08:03:21;;;;;;;10.30;4.28;;;;;;;5.02;100.00;100805.38;5004323;28;20030;-54
2024/01/27 08:05:47;;;;;;;13.82;5.13;;;;;;;4.08;100.00;100796.34;5008294;28;20034;-53
2024/01/27 08:08:12;;;;;;;11.75;5.40;;;;;;;4.17;100.00;100806.38;5005286;28;20030;-53
2024/01/27 08:10:39;;;;;;;24.73;5.78;;;;;;;5.11;100.00;100809.19;5015043;28;20084;-53
2024/01/27 08:13:04;;;;;;;13.82;5.95;;;;;;;6.00;100.00;100796.78;5014159;28;20069;-52
2024/01/27 08:15:30;;;;;;;13.55;5.45;;;;;;;7.27;100.00;100787.91;5006447;28;20410;-53
2024/01/27 08:17:55;;;;;;;10.75;4.65;;;;;;;8.50;100.00;100788.63;5006962;28;20061;-53
2024/01/27 08:20:20;;;;;;;8.45;4.90;;;;;;;9.74;100.00;100795.75;5007189;28;20516;-53
2024/01/27 08:22:50;;;;;;;9.55;4.60;;;;;;;10.67;100.00;100788.38;5008997;28;20057;-51
2024/01/27 08:25:16;;;;;;;;;;;;;;;10.01;92.77;100785.97;5014237;28;20046;-51
2024/01/27 08:27:41;;;;;;;11.00;4.47;;;;;;;9.91;94.48;100790.56;5003390;28;19914;-52
2024/01/27 08:30:07;;;;;;;10.18;5.57;;;;;;;10.67;85.07;100788.38;5013360;28;20053;-51
2024/01/27 08:32:33;;;;;;;9.23;5.00;;;;;;;11.92;79.21;100791.75;5009149;28;20025;-51
2024/01/27 08:34:58;;;;;;;15.93;6.07;;;;;;;12.43;71.60;100788.03;5003437;28;20170;-52
2024/01/27 08:37:24;;;;;;;10.02;5.43;;;;;;;12.50;71.46;100796.38;4989289;28;21285;-53
2024/01/27 08:39:51;;;;;;;10.60;5.60;;;;;;;13.26;67.21;100800.66;5003820;28;20053;-54
2024/01/27 08:42:16;;;;;;;12.02;5.35;;;;;;;12.96;65.14;100801.31;5008063;28;20057;-54
2024/01/27 08:44:42;;;;;;;11.20;4.75;;;;;;;13.00;67.15;100791.81;5002008;28;20038;-54
2024/01/27 08:47:08;;;;;;;10.02;5.60;;;;;;;13.74;65.20;100787.13;5006396;28;20028;-54
2024/01/27 08:49:33;;;;;;;10.48;5.97;;;;;;;14.62;63.75;100783.28;5007011;28;20084;-54
2024/01/27 08:51:58;;;;;;;8.35;5.10;;;;;;;15.08;58.45;100764.16;5002803;28;20018;-54
2024/01/27 08:54:24;;;;;;;8.20;5.03;;;;;;;14.27;61.66;100773.78;5004914;28;20085;-54
2024/01/27 08:56:50;;;;;;;11.55;4.97;;;;;;;12.47;63.23;100775.81;5003452;28;20021;-54
2024/01/27 08:59:15;;;;;;;10.15;4.80;;;;;;;13.45;62.73;100783.13;5011106;28;20029;-54
2024/01/27 09:01:42;;;;;;;8.55;4.70;;;;;;;12.59;62.30;100776.34;5005940;28;20029;-54
2024/01/27 09:04:08;;;;;;;7.03;4.50;;;;;;;13.72;65.43;100781.00;5000891;28;20029;-54
2024/01/27 09:06:33;;;;;;;8.05;4.35;;;;;;;15.27;61.04;100769.09;5004264;28;20037;-54
2024/01/27 09:08:58;;;;;;;9.98;4.55;;;;;;;14.79;58.67;100784.00;5009734;28;20026;-54
2024/01/27 09:11:26;;;;;;;9.07;4.47;;;;;;;14.64;60.44;100781.22;5005237;28;20105;-54
2024/01/27 09:13:53;;;;;;;8.87;4.30;;;;;;;17.41;55.45;100761.47;5009175;28;20033;-54
2024/01/27 09:16:18;;;;;;;8.68;4.03;;;;;;;18.37;52.79;100761.53;5004419;28;20026;-54
2024/01/27 09:18:44;;;;;;;9.68;3.85;;;;;;;17.72;52.00;100774.72;5012014;28;20032;-54
2024/01/27 09:21:09;;;;;;;7.97;4.03;;;;;;;18.14;51.29;100762.72;5008646;28;20045;-54
2024/01/27 09:23:35;;;;;;;6.93;3.60;;;;;;;17.74;51.90;100759.78;5002892;28;20053;-54
2024/01/27 09:26:00;;;;;;;6.55;3.35;;;;;;;18.30;50.73;100750.53;5004650;28;20141;-55
2024/01/27 09:28:26;;;;;;;7.18;3.17;;;;;;;18.73;50.10;100768.56;4999058;28;20034;-55
2024/01/27 09:30:51;;;;;;;7.43;3.58;;;;;;;18.04;51.21;100778.69;5001332;28;20396;-55
2024/01/27 09:35:51;;;;;;;7.07;3.70;;;;;;;18.14;50.48;100784.63;5084527;28;20052;-64
2024/01/27 09:38:17;;;;;;;7.47;3.78;;;;;;;18.28;52.33;100776.47;5088678;28;20104;-61
2024/01/27 09:40:43;;;;;;;6.07;3.47;;;;;;;17.44;51.79;100780.22;5089926;28;20041;-61
2024/01/27 09:43:12;;;;;;;7.75;3.75;;;;;;;16.83;53.02;100778.88;5088808;28;20028;-62
2024/01/27 09:45:38;;;;;;;5.57;3.47;;;;;;;17.93;52.80;100782.00;5085663;28;20036;-61
2024/01/27 09:48:07;;;;;;;6.78;3.40;;;;;;;18.97;52.00;100773.47;5089095;28;20039;-61
2024/01/27 09:50:32;;;;;;;;;;;;;;;18.21;52.08;100789.28;5088350;28;20406;-54
2024/01/27 09:52:58;;;;;;;6.03;3.80;;;;;;;19.97;48.86;100789.00;5087550;28;19919;-54
2024/01/27 09:55:23;;;;;;;7.43;4.13;;;;;;;20.21;47.96;100793.75;5085058;28;20117;-54
2024/01/27 09:57:49;;;;;;;9.98;4.82;;;;;;;20.60;46.67;100794.66;5089590;28;20039;-54
2024/01/27 10:00:16;;;;;;;8.55;4.70;;;;;;;21.23;45.76;100797.38;5090324;28;20077;-55
2024/01/27 10:02:43;;;;;;;9.07;4.10;;;;;;;18.84;49.01;100798.16;5092075;28;20103;-54
2024/01/27 10:05:09;;;;;;;5.68;3.10;;;;;;;19.23;49.13;100799.22;5092900;28;20028;-54
2024/01/27 10:07:34;;;;;;;7.35;2.92;;;;;;;19.37;48.90;100797.31;5090172;28;20083;-54
2024/01/27 10:10:00;;;;;;;7.60;3.15;;;;;;;19.04;49.35;100807.22;5089839;28;20020;-54
2024/01/27 10:12:28;;;;;;;7.03;3.55;;;;;;;20.56;47.68;100793.41;5092449;28;20020;-54
2024/01/27 10:14:53;;;;;;;6.45;3.80;;;;;;;21.04;45.50;100803.03;5077095;28;20023;-54
2024/01/27 10:17:23;;;;;;;10.20;4.82;;;;;;;21.57;45.86;100808.13;5093875;28;20043;-54
2024/01/27 10:20:00;;;;;;;9.50;3.20;;;;;;;20.52;45.42;100803.97;5091081;28;20110;-54
2024/01/27 10:22:27;;;;;;;7.25;2.80;;;;;;;18.64;47.68;100816.44;5094611;28;20027;-54
2024/01/27 10:24:52;;;;;;;6.50;2.78;;;;;;;19.28;45.73;100807.66;5087446;28;20452;-54
2024/01/27 10:27:18;;;;;;;5.55;2.85;;;;;;;16.99;51.23;100817.94;5086815;28;20056;-58
2024/01/27 10:29:55;;;;;;;10.63;3.70;;;;;;;18.69;49.27;100816.66;5094925;28;20020;-57
2024/01/27 10:32:23;;;;;;;8.10;4.10;;;;;;;19.78;46.91;100812.69;5074009;28;20455;-57
2024/01/27 10:34:49;;;;;;;10.65;5.32;;;;;;;19.99;47.29;100809.72;5088687;28;20502;-57
2024/01/27 10:37:15;;;;;;;11.48;4.35;;;;;;;20.17;46.00;100799.91;5085495;28;20035;-57
2024/01/27 10:39:41;;;;;;;10.98;4.88;;;;;;;18.91;47.45;100801.72;5091163;28;20020;-57
2024/01/27 10:42:08;;;;;;;9.93;4.85;;;;;;;19.72;47.87;100791.59;5085692;28;20463;-57
2024/01/27 10:44:37;;;;;;;8.90;4.82;;;;;;;19.32;48.06;100792.47;5094081;28;20477;-57
2024/01/27 10:47:06;;;;;;;10.18;3.90;;;;;;;20.75;46.98;100781.44;5094458;28;20039;-57
2024/01/27 10:49:34;;;;;;;8.23;3.80;;;;;;;20.56;45.86;100787.91;5089700;28;20032;-57
2024/01/27 10:52:03;;;;;;;9.40;4.25;;;;;;;19.51;46.62;100790.75;5089354;28;20036;-57
2024/01/27 10:54:30;;;;;;;7.93;3.60;;;;;;;20.90;44.58;100796.78;5093512;28;20483;-57
2024/01/27 10:56:58;;;;;;;6.85;2.67;;;;;;;19.96;45.86;100788.13;5069780;28;20046;-57
2024/01/27 10:59:26;;;;;;;8.27;2.80;;;;;;;19.83;45.05;100783.56;5075312;28;20333;-57
2024/01/27 11:01:53;;;;;;;7.53;3.10;;;;;;;20.26;44.47;100766.47;5094718;28;20034;-57
2024/01/27 11:04:20;;;;;;;9.18;4.10;;;;;;;19.72;45.31;100767.72;5090387;28;20028;-57
2024/01/27 11:06:47;;;;;;;9.52;3.75;;;;;;;20.85;44.74;100758.09;5079943;28;20114;-57
2024/01/27 11:09:14;;;;;;;9.10;3.85;;;;;;;20.89;43.95;100743.66;5090731;28;20118;-58
2024/01/27 11:11:41;;;;;;;8.63;4.00;;;;;;;20.87;45.16;100747.69;5088571;28;20023;-58
2024/01/27 11:14:09;;;;;;;9.57;3.60;;;;;;;20.76;44.47;100733.59;5092706;28;20029;-58
2024/01/27 11:16:35;;;;;;;7.25;3.55;;;;;;;20.36;46.66;100733.84;5075129;28;20588;-57